Mirage, Colorado
Current Conditions -  °F | °C
As of 11:53 AM on Thursday 23 Oct 2014 (Local Time) from K04V Reporting Station
Clear Clear  
Wind Chill: 55°   Ceiling: Unl
Heat Index: 55°   Visibility: 10mi
Dew Point: 32°   Wind: 7mph
Humidity: 41%   Direction: 190°S
Pressure: 30.37"   Gusts: NA
Location:  37.9777°N, 105.779°W
Report Text: K04V 231753Z AUTO 19006KT 10SM CLR 13/00 A3037 RMK AO2
Loading
Personal Weather Stations






























Interactive Weather Map
Tropical Storm Tracking
New forecast layout! Learn more

10-Day Weather Forecast

Advertisements
Track Severe Weather on mobile